Time;durP1;ratioP1;P1;durP2;ratioP2;P2;SDS_P1;SDS_P2;PMS_P1;PMS_P2;Temp;Humidity;BMP_temperature;BMP_pressure;BME280_temperature;BME280_humidity;BME280_pressure;Samples;Min_cycle;Max_cycle;Signal;HPM_P1;HPM_P2
2022/03/22 00:01:03;;;;;;;1.38;1.02;;;22.00;63.80;;;;;;5011068;28;20280;-58
2022/03/22 00:03:34;;;;;;;1.65;1.42;;;22.00;63.00;;;;;;5010487;28;20224;-54
2022/03/22 00:06:05;;;;;;;2.95;1.48;;;22.00;63.00;;;;;;5010945;28;20221;-57
2022/03/22 00:08:37;;;;;;;1.83;1.05;;;22.00;63.10;;;;;;5010171;28;20232;-58
2022/03/22 00:11:08;;;;;;;1.50;1.00;;;22.00;63.40;;;;;;5008889;28;20225;-60
2022/03/22 00:13:42;;;;;;;1.73;1.10;;;22.10;63.60;;;;;;5009527;28;20193;-63
2022/03/22 00:16:15;;;;;;;2.72;1.08;;;22.10;63.70;;;;;;5009310;28;20210;-54
2022/03/22 00:18:47;;;;;;;2.33;1.30;;;22.10;63.80;;;;;;5047923;22;20223;-58
2022/03/22 00:21:19;;;;;;;2.58;1.15;;;22.10;63.70;;;;;;5049706;28;20603;-58
2022/03/22 00:23:52;;;;;;;3.03;1.15;;;22.10;63.60;;;;;;5049533;28;20195;-56
2022/03/22 00:26:22;;;;;;;3.00;1.20;;;22.20;63.50;;;;;;5046480;28;20242;-57
2022/03/22 00:28:53;;;;;;;2.25;1.20;;;22.20;63.50;;;;;;5029691;28;20200;-58
2022/03/22 00:31:23;;;;;;;1.95;1.05;;;22.20;63.50;;;;;;5025659;28;20192;-58
2022/03/22 00:33:54;;;;;;;2.05;1.20;;;22.20;63.50;;;;;;5029850;28;20281;-58
2022/03/22 00:36:24;;;;;;;2.35;1.23;;;22.30;63.50;;;;;;5029908;28;20224;-58
2022/03/22 00:39:07;;;;;;;1.38;1.00;;;22.30;63.50;;;;;;5029833;28;20219;-58
2022/03/22 00:41:40;;;;;;;4.20;1.20;;;22.30;63.40;;;;;;5029399;28;20192;-59
2022/03/22 00:44:14;;;;;;;1.48;0.93;;;22.30;63.30;;;;;;5030077;28;20228;-58
2022/03/22 00:46:44;;;;;;;3.10;1.23;;;22.40;63.30;;;;;;5029334;28;20309;-58
2022/03/22 00:49:17;;;;;;;2.42;1.20;;;22.40;63.20;;;;;;5029641;28;20224;-59
2022/03/22 00:51:50;;;;;;;2.58;1.30;;;22.40;63.30;;;;;;5028901;28;20223;-58
2022/03/22 00:54:23;;;;;;;1.95;1.20;;;22.40;63.40;;;;;;5029425;28;20224;-57
2022/03/22 00:56:54;;;;;;;3.38;1.73;;;22.40;63.30;;;;;;5028988;28;20219;-56
2022/03/22 01:02:11;;;;;;;3.92;1.50;;;22.50;63.50;;;;;;5026948;28;20671;-57
2022/03/22 01:04:43;;;;;;;2.17;1.20;;;22.50;63.40;;;;;;5027824;28;20258;-57
2022/03/22 01:07:13;;;;;;;2.92;1.30;;;22.50;63.30;;;;;;5029248;28;20687;-58
2022/03/22 01:09:45;;;;;;;1.65;1.17;;;22.50;63.30;;;;;;5029317;28;20224;-57
2022/03/22 01:12:16;;;;;;;3.22;1.48;;;22.60;63.40;;;;;;5028465;28;20200;-58
2022/03/22 01:14:47;;;;;;;5.28;1.27;;;22.50;63.50;;;;;;5029831;28;20681;-59
2022/03/22 01:17:17;;;;;;;4.05;1.30;;;22.60;63.80;;;;;;5042417;22;20737;-57
2022/03/22 01:19:48;;;;;;;2.92;1.48;;;22.60;63.80;;;;;;5048216;28;20215;-55
2022/03/22 01:22:19;;;;;;;3.28;1.38;;;22.60;63.70;;;;;;5048678;28;20241;-53
2022/03/22 01:24:52;;;;;;;1.60;0.88;;;22.60;63.60;;;;;;5047535;28;20728;-54
2022/03/22 01:27:22;;;;;;;2.40;1.35;;;22.60;63.50;;;;;;5037595;28;20274;-53
2022/03/22 01:29:53;;;;;;;2.55;1.10;;;22.70;63.60;;;;;;5029578;28;20188;-55
2022/03/22 01:32:24;;;;;;;3.72;1.20;;;22.70;63.60;;;;;;5029469;28;20269;-53
2022/03/22 01:34:54;;;;;;;2.72;1.27;;;22.70;63.50;;;;;;5028983;28;20226;-51
2022/03/22 01:37:28;;;;;;;3.28;1.40;;;22.70;63.50;;;;;;5029244;28;20223;-53
2022/03/22 01:40:00;;;;;;;5.70;1.70;;;22.70;63.50;;;;;;5028624;28;20263;-52
2022/03/22 01:42:31;;;;;;;3.13;1.48;;;22.80;63.40;;;;;;5027485;28;20200;-59
2022/03/22 01:45:01;;;;;;;4.60;1.20;;;22.80;63.30;;;;;;5029237;28;20199;-59
2022/03/22 01:47:32;;;;;;;3.00;1.17;;;22.80;63.30;;;;;;5029151;28;20228;-59
2022/03/22 01:50:03;;;;;;;2.90;1.35;;;22.80;63.20;;;;;;5028685;28;20188;-57
2022/03/22 01:52:40;;;;;;;2.88;1.42;;;22.80;63.20;;;;;;5029107;28;20228;-60
2022/03/22 01:55:15;;;;;;;3.38;1.50;;;22.80;63.30;;;;;;5028656;28;20249;-59
2022/03/22 01:57:45;;;;;;;6.70;1.45;;;22.80;63.30;;;;;;5028898;28;20262;-58
2022/03/22 02:00:18;;;;;;;2.70;1.35;;;22.80;63.30;;;;;;5028564;28;20192;-57
2022/03/22 02:05:55;;;;;;;3.67;1.48;;;22.80;63.40;;;;;;5028838;28;20199;-59
2022/03/22 02:08:27;;;;;;;2.70;1.20;;;22.90;63.30;;;;;;5027416;28;20220;-57
2022/03/22 02:11:01;;;;;;;2.35;1.40;;;22.90;63.30;;;;;;5028276;28;20224;-58
2022/03/22 02:13:32;;;;;;;2.50;1.17;;;22.90;63.30;;;;;;5027980;28;20192;-58
2022/03/22 02:16:03;;;;;;;3.25;1.60;;;22.90;63.10;;;;;;5029081;28;20200;-57
2022/03/22 02:18:34;;;;;;;3.22;1.48;;;22.90;63.10;;;;;;5050486;22;20219;-54
2022/03/22 02:24:07;;;;;;;2.03;1.30;;;22.90;63.10;;;;;;5005958;28;20874;-56
2022/03/22 02:26:38;;;;;;;3.58;1.25;;;23.00;63.10;;;;;;5001831;28;20214;-53
2022/03/22 02:29:09;;;;;;;3.22;1.40;;;23.00;63.00;;;;;;5012967;28;20577;-56
2022/03/22 02:31:40;;;;;;;4.70;1.33;;;23.00;62.90;;;;;;5028144;28;20188;-54
2022/03/22 02:34:13;;;;;;;3.72;1.70;;;23.00;63.20;;;;;;5027710;28;20266;-55
2022/03/22 02:36:44;;;;;;;4.70;1.60;;;23.00;63.30;;;;;;5029119;28;20212;-55
2022/03/22 02:39:17;;;;;;;2.67;1.60;;;23.00;63.30;;;;;;5027900;28;20232;-56
2022/03/22 02:41:50;;;;;;;3.30;1.58;;;23.00;63.40;;;;;;5031942;28;20203;-55
2022/03/22 02:44:21;;;;;;;3.60;1.70;;;23.10;63.40;;;;;;5031992;28;20192;-56
2022/03/22 02:46:52;;;;;;;4.60;1.90;;;23.10;63.40;;;;;;5031459;28;20645;-55
2022/03/22 02:49:23;;;;;;;5.25;1.83;;;23.10;63.40;;;;;;5032710;28;20207;-56
2022/03/22 02:51:54;;;;;;;3.17;1.55;;;23.10;63.30;;;;;;5031653;28;20192;-57
2022/03/22 02:54:26;;;;;;;2.92;1.80;;;23.10;63.30;;;;;;5032446;28;20211;-56
2022/03/22 02:56:57;;;;;;;2.65;1.30;;;23.10;63.20;;;;;;5025698;28;20217;-56
2022/03/22 02:59:27;;;;;;;3.90;1.55;;;23.10;63.10;;;;;;5013560;28;20754;-56
2022/03/22 03:02:00;;;;;;;5.78;1.85;;;23.20;63.10;;;;;;5013098;28;20255;-56
2022/03/22 03:04:31;;;;;;;4.63;1.67;;;23.20;63.10;;;;;;5014393;28;20192;-56
2022/03/22 03:07:02;;;;;;;5.65;1.92;;;23.20;63.10;;;;;;5011619;28;20774;-56
2022/03/22 03:09:34;;;;;;;3.47;1.75;;;23.20;63.10;;;;;;5011625;28;20275;-56
2022/03/22 03:12:05;;;;;;;4.28;1.73;;;23.30;63.10;;;;;;5011748;28;20727;-56
2022/03/22 03:14:44;;;;;;;6.28;2.00;;;23.30;63.00;;;;;;5011730;28;20193;-56
2022/03/22 03:17:15;;;;;;;4.40;1.88;;;23.30;63.20;;;;;;5012282;28;20283;-55
2022/03/22 03:19:46;;;;;;;7.90;2.15;;;23.30;63.10;;;;;;5011975;28;20283;-55
2022/03/22 03:22:17;;;;;;;5.18;2.08;;;23.30;63.00;;;;;;5013246;28;20609;-56
2022/03/22 03:24:49;;;;;;;5.57;1.90;;;23.40;63.00;;;;;;5012699;28;20254;-56
2022/03/22 03:27:20;;;;;;;9.70;2.60;;;23.30;62.80;;;;;;5012037;28;20267;-56
2022/03/22 03:29:51;;;;;;;6.18;2.17;;;23.40;62.80;;;;;;5013085;28;20205;-56
2022/03/22 03:32:21;;;;;;;6.78;2.40;;;23.40;62.80;;;;;;5013182;28;20266;-57
2022/03/22 03:34:52;;;;;;;5.60;2.08;;;23.40;62.70;;;;;;5012870;28;20251;-55
2022/03/22 03:37:23;;;;;;;4.60;1.77;;;23.40;62.60;;;;;;5012632;28;20546;-56
2022/03/22 03:39:55;;;;;;;5.32;2.10;;;23.40;62.70;;;;;;5012800;28;20336;-56
2022/03/22 03:42:26;;;;;;;5.47;2.20;;;23.40;62.70;;;;;;5012417;28;20258;-57
2022/03/22 03:47:43;;;;;;;7.50;2.42;;;23.50;62.60;;;;;;5012960;28;20247;-57
2022/03/22 03:50:14;;;;;;;5.55;2.28;;;23.50;62.60;;;;;;5013143;28;20336;-57
2022/03/22 03:52:44;;;;;;;4.05;2.10;;;23.50;62.50;;;;;;5012077;28;20220;-56
2022/03/22 03:55:17;;;;;;;5.88;2.35;;;23.50;62.40;;;;;;5012566;28;20196;-56
2022/03/22 03:57:48;;;;;;;6.05;1.85;;;23.50;62.50;;;;;;5012114;28;20703;-56
2022/03/22 04:00:20;;;;;;;5.72;2.20;;;23.50;62.50;;;;;;5012354;28;20204;-56
2022/03/22 04:02:50;;;;;;;6.30;2.30;;;23.50;62.40;;;;;;5012556;28;20200;-56
2022/03/22 04:05:21;;;;;;;4.75;2.30;;;23.60;62.40;;;;;;5012426;28;20731;-56
2022/03/22 04:07:51;;;;;;;4.93;1.90;;;23.60;62.40;;;;;;5014597;28;20250;-53
2022/03/22 04:10:24;;;;;;;6.60;2.50;;;23.60;62.40;;;;;;5030977;28;20243;-54
2022/03/22 04:12:54;;;;;;;6.95;2.80;;;23.60;62.50;;;;;;5028528;28;20862;-56
2022/03/22 04:15:25;;;;;;;7.43;2.45;;;23.60;62.50;;;;;;5029889;28;20262;-55
2022/03/22 04:17:57;;;;;;;5.78;2.20;;;23.60;62.20;;;;;;5030600;28;20220;-56
2022/03/22 04:20:27;;;;;;;5.38;2.38;;;23.60;62.10;;;;;;5030157;28;20196;-54
2022/03/22 04:22:58;;;;;;;6.38;2.28;;;23.60;62.10;;;;;;5030781;28;20246;-55
2022/03/22 04:25:30;;;;;;;8.40;2.60;;;23.60;62.00;;;;;;5030072;28;20251;-56
2022/03/22 04:33:34;;;;;;;5.28;1.77;;;23.60;61.90;;;;;;5031039;28;20219;-55
2022/03/22 04:36:04;;;;;;;4.90;1.70;;;23.60;61.80;;;;;;5029085;28;20203;-55
2022/03/22 04:38:35;;;;;;;5.90;2.10;;;23.60;61.80;;;;;;5030249;28;20216;-56
2022/03/22 04:41:10;;;;;;;4.85;1.95;;;23.60;61.90;;;;;;5028758;28;20204;-55
2022/03/22 04:43:40;;;;;;;6.20;2.40;;;23.60;61.90;;;;;;5029236;28;20200;-55
2022/03/22 04:46:11;;;;;;;5.68;2.10;;;23.60;61.80;;;;;;5029489;28;20204;-55
2022/03/22 04:48:41;;;;;;;4.35;1.92;;;23.60;61.80;;;;;;5029795;28;20453;-53
2022/03/22 04:56:51;;;;;;;4.03;1.40;;;23.70;61.70;;;;;;5029935;28;20764;-57
2022/03/22 04:59:24;;;;;;;3.95;1.50;;;23.70;61.60;;;;;;5027147;28;20341;-55
2022/03/22 05:01:54;;;;;;;3.78;1.90;;;23.70;61.60;;;;;;5029569;28;20235;-56
2022/03/22 05:04:25;;;;;;;3.53;1.77;;;23.70;61.60;;;;;;5029158;28;20200;-56
2022/03/22 05:06:56;;;;;;;4.90;1.80;;;23.70;62.30;;;;;;5029620;28;20255;-55
2022/03/22 05:09:28;;;;;;;3.72;1.55;;;23.70;61.60;;;;;;5029002;28;20297;-55
2022/03/22 05:12:01;;;;;;;4.22;2.03;;;23.70;61.50;;;;;;5028536;28;20234;-54
2022/03/22 05:14:32;;;;;;;5.43;1.90;;;23.70;61.50;;;;;;5029039;28;20235;-55
2022/03/22 05:17:02;;;;;;;3.72;2.08;;;23.70;61.50;;;;;;5026367;28;20216;-56
2022/03/22 05:19:33;;;;;;;4.05;1.50;;;23.70;61.50;;;;;;5055923;22;20326;-57
2022/03/22 05:22:04;;;;;;;3.75;1.70;;;23.70;61.40;;;;;;5049190;28;20227;-57
2022/03/22 05:24:35;;;;;;;2.88;1.48;;;23.70;61.40;;;;;;5049447;28;20682;-57
2022/03/22 05:27:07;;;;;;;3.80;1.83;;;23.70;61.30;;;;;;5046698;28;20242;-57
2022/03/22 05:29:38;;;;;;;5.65;1.60;;;23.70;61.30;;;;;;5048173;28;20191;-57
2022/03/22 05:32:38;;;;;;;3.75;1.73;;;23.70;61.40;;;;;;5049027;28;20227;-57
2022/03/22 05:35:09;;;;;;;4.82;1.92;;;23.70;61.50;;;;;;5049372;28;20275;-57
2022/03/22 05:37:40;;;;;;;3.35;1.50;;;23.70;61.40;;;;;;5048648;28;20219;-57
2022/03/22 05:40:11;;;;;;;3.80;1.67;;;23.70;61.50;;;;;;5048269;28;20284;-57
2022/03/22 05:42:44;;;;;;;3.88;1.60;;;23.70;61.50;;;;;;5047900;28;20257;-57
2022/03/22 05:45:15;;;;;;;6.38;1.90;;;23.70;61.50;;;;;;5048300;28;20227;-57
2022/03/22 05:47:45;;;;;;;2.85;1.33;;;23.70;61.50;;;;;;5047825;28;20211;-57
2022/03/22 05:50:16;;;;;;;2.85;1.63;;;23.70;61.60;;;;;;5048078;28;20764;-56
2022/03/22 05:52:49;;;;;;;3.72;1.73;;;23.70;61.50;;;;;;5048233;28;20249;-56
2022/03/22 05:55:19;;;;;;;3.63;1.63;;;23.70;61.60;;;;;;5047966;28;20200;-57
2022/03/22 05:57:51;;;;;;;3.42;1.55;;;23.70;61.40;;;;;;5047975;28;20233;-56
2022/03/22 06:00:22;;;;;;;2.60;1.50;;;23.70;61.50;;;;;;5048666;28;20255;-57
2022/03/22 06:02:53;;;;;;;3.72;1.48;;;23.60;61.40;;;;;;5049248;28;20294;-57
2022/03/22 06:05:23;;;;;;;3.80;1.85;;;23.60;61.30;;;;;;5048133;28;20565;-57
2022/03/22 06:07:54;;;;;;;4.45;1.95;;;23.60;61.30;;;;;;5048568;28;20368;-57
2022/03/22 06:10:24;;;;;;;3.63;1.50;;;23.60;61.30;;;;;;5048058;28;20618;-56
2022/03/22 06:12:58;;;;;;;3.78;1.60;;;23.60;61.30;;;;;;5047070;28;20270;-57
2022/03/22 06:15:30;;;;;;;3.17;1.50;;;23.50;61.20;;;;;;5047435;28;20359;-58
2022/03/22 06:28:30;;;;;;;2.33;1.27;;;23.50;61.10;;;;;;5861032;22;20206;-56
2022/03/22 06:31:02;;;;;;;2.17;1.50;;;23.50;61.20;;;;;;5044621;28;20205;-56
2022/03/22 06:33:33;;;;;;;2.83;1.55;;;23.50;61.20;;;;;;5034144;28;20223;-52
2022/03/22 06:36:05;;;;;;;1.92;1.10;;;23.50;61.10;;;;;;5045195;28;20227;-56
2022/03/22 06:38:36;;;;;;;2.63;1.33;;;23.50;61.00;;;;;;5064379;28;20727;-56
2022/03/22 06:41:06;;;;;;;2.97;1.48;;;23.50;61.10;;;;;;5062685;28;20187;-57
2022/03/22 06:43:39;;;;;;;3.90;1.20;;;23.50;61.20;;;;;;5063517;28;20199;-56
2022/03/22 06:46:10;;;;;;;2.35;1.20;;;23.50;61.10;;;;;;5065533;28;20222;-55
2022/03/22 06:48:41;;;;;;;2.75;1.20;;;23.50;61.10;;;;;;5054571;28;20264;-56
2022/03/22 06:51:11;;;;;;;3.38;1.52;;;23.50;61.00;;;;;;5065316;28;20280;-56
2022/03/22 06:53:42;;;;;;;2.90;1.35;;;23.50;61.00;;;;;;5067538;28;20833;-56
2022/03/22 06:56:14;;;;;;;2.65;1.38;;;23.40;60.90;;;;;;5069026;28;20248;-56
2022/03/22 06:58:50;;;;;;;2.30;1.20;;;23.40;60.90;;;;;;5066084;28;20187;-57
2022/03/22 07:01:20;;;;;;;2.88;1.42;;;23.40;61.00;;;;;;5057552;28;20265;-55
2022/03/22 07:03:51;;;;;;;3.47;1.60;;;23.40;61.00;;;;;;5066538;28;20732;-55
2022/03/22 07:06:21;;;;;;;2.17;1.27;;;23.40;60.90;;;;;;5063857;28;20819;-57
2022/03/22 07:08:52;;;;;;;3.08;1.63;;;23.40;60.90;;;;;;5069338;28;20195;-57
2022/03/22 07:14:12;;;;;;;2.28;1.33;;;23.40;60.90;;;;;;5069308;28;20244;-54
2022/03/22 07:16:42;;;;;;;2.60;1.27;;;23.40;60.90;;;;;;5069003;28;20264;-57
2022/03/22 07:19:13;;;;;;;2.97;1.25;;;23.40;60.90;;;;;;5069949;28;20316;-56
2022/03/22 07:21:43;;;;;;;2.67;1.20;;;23.30;60.90;;;;;;5068978;28;20190;-56
2022/03/22 07:24:15;;;;;;;2.05;1.20;;;23.30;60.90;;;;;;5069133;28;20645;-55
2022/03/22 07:26:45;;;;;;;2.33;1.20;;;23.30;60.90;;;;;;5068886;28;20264;-55
2022/03/22 07:29:18;;;;;;;2.42;1.25;;;23.30;60.80;;;;;;5072414;28;20614;-56
2022/03/22 07:31:48;;;;;;;3.38;1.20;;;23.30;60.80;;;;;;5071965;28;20240;-56
2022/03/22 07:34:20;;;;;;;1.60;0.93;;;23.30;60.80;;;;;;5072310;28;20226;-54
2022/03/22 07:36:52;;;;;;;1.50;1.30;;;23.30;60.70;;;;;;5072257;28;20519;-57
2022/03/22 07:39:24;;;;;;;2.10;1.20;;;23.30;60.80;;;;;;5072461;28;20704;-58
2022/03/22 07:41:54;;;;;;;2.05;1.30;;;23.30;61.60;;;;;;5072104;28;20195;-56
2022/03/22 07:44:27;;;;;;;1.85;1.33;;;23.30;60.80;;;;;;5072355;28;20283;-56
2022/03/22 07:46:57;;;;;;;2.05;1.30;;;23.30;60.90;;;;;;5071837;28;20298;-57
2022/03/22 07:55:03;;;;;;;1.85;1.08;;;23.20;61.20;;;;;;5072147;28;20669;-57
2022/03/22 07:57:33;;;;;;;3.42;1.15;;;23.20;61.10;;;;;;5071588;28;20238;-57
2022/03/22 08:00:06;;;;;;;2.47;1.20;;;23.20;61.10;;;;;;5071572;28;20222;-56
2022/03/22 08:02:37;;;;;;;1.75;1.05;;;23.20;61.20;;;;;;5052130;28;20257;-57
2022/03/22 08:05:09;;;;;;;2.22;1.30;;;23.20;61.10;;;;;;5055990;28;20201;-57
2022/03/22 08:07:39;;;;;;;2.42;1.45;;;23.20;61.10;;;;;;5068326;28;20246;-58
2022/03/22 08:10:10;;;;;;;2.58;1.30;;;23.10;61.00;;;;;;5070678;28;20195;-57
2022/03/22 08:12:41;;;;;;;2.35;1.20;;;23.10;61.20;;;;;;5070376;28;20241;-56
2022/03/22 08:15:14;;;;;;;1.80;1.30;;;23.10;61.10;;;;;;5070618;28;20195;-58
2022/03/22 08:17:45;;;;;;;2.38;1.40;;;23.10;61.00;;;;;;5070534;28;20300;-57
2022/03/22 08:20:16;;;;;;;2.38;1.27;;;23.10;60.90;;;;;;5070590;28;20241;-58
2022/03/22 08:22:51;;;;;;;1.83;1.02;;;23.10;60.90;;;;;;5076558;28;20198;-57
2022/03/22 08:28:43;;;;;;;2.13;1.20;;;23.10;60.90;;;;;;5088311;28;20243;-57
2022/03/22 08:31:17;;;;;;;2.58;1.45;;;23.10;60.80;;;;;;5067446;28;20259;-56
2022/03/22 08:33:47;;;;;;;3.42;1.35;;;23.00;60.80;;;;;;5089973;28;20226;-57
2022/03/22 08:36:18;;;;;;;1.35;1.05;;;23.00;60.80;;;;;;5088730;28;20190;-58
2022/03/22 08:38:49;;;;;;;3.03;1.70;;;23.00;60.90;;;;;;5089380;28;20252;-57
2022/03/22 08:41:19;;;;;;;1.58;0.95;;;23.00;60.90;;;;;;5090504;28;20702;-56
2022/03/22 08:43:50;;;;;;;1.98;1.20;;;23.00;60.90;;;;;;5090252;28;20318;-56
2022/03/22 08:46:24;;;;;;;1.80;1.23;;;23.00;61.00;;;;;;5089688;28;20230;-57
2022/03/22 08:49:13;;;;;;;2.45;1.55;;;23.00;61.10;;;;;;5089811;28;20792;-57
2022/03/22 08:51:43;;;;;;;3.42;1.40;;;23.00;61.20;;;;;;5072976;28;20273;-55
2022/03/22 08:54:14;;;;;;;1.52;1.20;;;23.00;61.10;;;;;;5069828;28;20214;-57
2022/03/22 08:56:44;;;;;;;1.95;1.13;;;23.00;61.20;;;;;;5069186;28;20302;-57
2022/03/22 08:59:15;;;;;;;1.83;1.08;;;23.00;61.20;;;;;;5074005;28;20277;-54
2022/03/22 09:01:47;;;;;;;1.88;1.20;;;22.90;61.10;;;;;;5089702;28;20300;-57
2022/03/22 09:07:04;;;;;;;1.65;1.30;;;22.90;61.10;;;;;;5067994;28;20217;-55
2022/03/22 09:09:34;;;;;;;2.05;1.20;;;22.90;61.00;;;;;;5069613;28;20219;-57
2022/03/22 09:12:05;;;;;;;1.17;1.08;;;22.90;60.90;;;;;;5069485;28;20322;-56
2022/03/22 09:14:35;;;;;;;1.33;1.02;;;22.90;60.80;;;;;;5075337;28;20226;-56
2022/03/22 09:17:08;;;;;;;1.63;1.30;;;22.90;60.80;;;;;;5068537;28;20329;-57
2022/03/22 09:19:39;;;;;;;1.42;1.00;;;22.90;60.80;;;;;;5069221;28;20226;-57
2022/03/22 09:22:10;;;;;;;1.73;1.30;;;22.90;60.80;;;;;;5084852;28;20229;-56
2022/03/22 09:24:40;;;;;;;2.10;1.10;;;22.90;60.80;;;;;;5081469;28;20191;-55
2022/03/22 09:27:11;;;;;;;2.10;1.20;;;22.90;60.80;;;;;;5073803;28;20206;-56
2022/03/22 09:29:41;;;;;;;1.60;1.15;;;22.90;60.90;;;;;;5089069;28;20290;-57
2022/03/22 09:32:14;;;;;;;1.80;1.17;;;22.80;60.80;;;;;;5088853;28;20221;-57
2022/03/22 09:34:44;;;;;;;2.40;1.25;;;22.80;60.80;;;;;;5088633;28;20708;-57
2022/03/22 09:37:17;;;;;;;1.58;1.13;;;22.80;60.90;;;;;;5088389;28;20253;-56
2022/03/22 09:39:47;;;;;;;1.55;1.00;;;22.80;60.90;;;;;;5088696;28;20194;-56
2022/03/22 09:42:19;;;;;;;1.77;1.20;;;22.80;61.00;;;;;;5088106;28;20710;-57
2022/03/22 09:44:52;;;;;;;1.92;1.23;;;22.80;61.10;;;;;;5088482;28;20225;-56
2022/03/22 09:47:25;;;;;;;1.58;1.05;;;22.80;61.10;;;;;;5088614;28;20245;-57
2022/03/22 09:49:56;;;;;;;1.63;1.10;;;22.80;61.10;;;;;;5088251;28;20202;-56
2022/03/22 09:52:26;;;;;;;1.95;1.40;;;22.80;61.10;;;;;;5089041;28;20532;-56
2022/03/22 09:54:57;;;;;;;1.52;1.25;;;22.80;61.20;;;;;;5088934;28;20240;-57
2022/03/22 09:57:27;;;;;;;1.83;1.27;;;22.70;61.10;;;;;;5088846;28;20263;-58
2022/03/22 09:59:58;;;;;;;2.05;1.20;;;22.70;61.10;;;;;;5089061;28;20197;-56
2022/03/22 10:02:35;;;;;;;2.75;1.10;;;22.80;61.00;;;;;;5088825;28;20197;-56
2022/03/22 10:05:06;;;;;;;1.65;1.05;;;22.70;60.90;;;;;;5089352;28;20190;-57
2022/03/22 10:07:37;;;;;;;1.70;1.10;;;22.80;61.00;;;;;;5087497;28;20214;-56
2022/03/22 10:10:11;;;;;;;1.80;1.27;;;22.80;61.00;;;;;;5068141;28;20221;-57
2022/03/22 10:12:42;;;;;;;1.65;1.00;;;22.80;60.90;;;;;;5077761;28;20282;-56
2022/03/22 10:15:13;;;;;;;1.55;1.00;;;22.70;60.90;;;;;;5088539;28;20604;-57
2022/03/22 10:17:46;;;;;;;1.95;1.40;;;22.70;60.90;;;;;;5088949;28;20240;-57
2022/03/22 10:20:26;;;;;;;2.30;1.40;;;22.70;60.90;;;;;;5068216;28;20214;-57
2022/03/22 10:22:59;;;;;;;1.50;0.98;;;22.70;61.00;;;;;;5068356;28;20790;-57
2022/03/22 10:25:31;;;;;;;2.28;1.40;;;22.60;60.90;;;;;;5068268;28;20192;-57
2022/03/22 10:28:04;;;;;;;1.90;1.00;;;22.60;60.90;;;;;;5069769;28;20216;-56
2022/03/22 10:30:35;;;;;;;1.83;1.10;;;22.70;61.00;;;;;;5088049;28;20210;-56
2022/03/22 10:33:08;;;;;;;1.83;1.30;;;22.60;61.00;;;;;;5088639;28;20198;-56
2022/03/22 10:35:39;;;;;;;2.28;1.02;;;22.60;61.00;;;;;;5086905;28;20268;-53
2022/03/22 10:38:11;;;;;;;1.40;1.10;;;22.60;61.10;;;;;;5087962;28;20669;-57
2022/03/22 10:40:44;;;;;;;2.40;1.45;;;22.60;61.10;;;;;;5087977;28;20267;-56
2022/03/22 10:43:17;;;;;;;1.45;1.10;;;22.60;61.10;;;;;;5088296;28;20196;-56
2022/03/22 10:45:48;;;;;;;1.38;1.08;;;22.60;61.10;;;;;;5073887;28;20249;-57
2022/03/22 10:48:26;;;;;;;1.55;0.93;;;22.60;61.10;;;;;;5071096;28;20272;-56
2022/03/22 10:50:58;;;;;;;1.33;0.90;;;22.60;61.10;;;;;;5058226;28;20191;-58
2022/03/22 10:53:29;;;;;;;1.45;1.00;;;22.60;61.10;;;;;;5049471;28;20249;-58
2022/03/22 10:56:01;;;;;;;2.78;1.30;;;22.60;61.10;;;;;;5049461;28;20199;-58
2022/03/22 10:58:34;;;;;;;1.30;1.17;;;22.60;61.00;;;;;;5049634;28;20191;-58
2022/03/22 11:01:06;;;;;;;2.80;1.40;;;22.60;60.90;;;;;;5065198;28;20618;-58
2022/03/22 11:03:40;;;;;;;1.20;1.00;;;22.50;60.80;;;;;;5073590;28;20195;-58
2022/03/22 11:06:11;;;;;;;1.83;1.35;;;22.50;60.80;;;;;;5073145;28;20331;-58
2022/03/22 11:08:42;;;;;;;1.38;1.17;;;22.50;60.80;;;;;;5073181;28;20236;-58
2022/03/22 11:11:13;;;;;;;3.28;1.60;;;22.50;60.80;;;;;;5072706;28;20650;-57
2022/03/22 11:13:44;;;;;;;1.40;1.17;;;22.50;60.80;;;;;;5072799;28;20221;-58
2022/03/22 11:16:15;;;;;;;1.25;1.13;;;22.50;60.80;;;;;;5072595;28;20195;-58
2022/03/22 11:18:49;;;;;;;1.63;1.13;;;22.50;60.80;;;;;;5073952;28;20320;-58
2022/03/22 11:21:21;;;;;;;1.63;1.15;;;22.50;60.90;;;;;;5071932;28;20301;-58
2022/03/22 11:23:52;;;;;;;2.05;1.20;;;22.50;61.30;;;;;;5072991;28;20282;-56
2022/03/22 11:26:25;;;;;;;1.20;1.00;;;22.50;61.00;;;;;;5073265;28;20673;-58
2022/03/22 11:28:56;;;;;;;1.40;1.00;;;22.50;61.00;;;;;;5072839;28;20213;-58
2022/03/22 11:31:30;;;;;;;1.95;1.30;;;22.50;61.00;;;;;;5072664;28;20187;-58
2022/03/22 11:34:11;;;;;;;1.40;1.27;;;22.50;61.00;;;;;;5073136;28;20803;-58
2022/03/22 11:36:46;;;;;;;1.58;1.33;;;22.50;61.00;;;;;;5072500;28;20218;-58
2022/03/22 11:42:15;;;;;;;1.27;1.00;;;22.40;60.90;;;;;;5072628;28;20202;-57
2022/03/22 11:42:17;;;;;;;1.95;1.38;;;22.50;61.00;;;;;;5072662;28;20376;-54
2022/03/22 11:44:59;;;;;;;1.20;1.02;;;22.40;60.90;;;;;;5072427;28;20251;-58
2022/03/22 11:47:40;;;;;;;1.42;0.80;;;22.40;60.90;;;;;;5072705;28;20215;-56
2022/03/22 11:50:17;;;;;;;3.00;1.20;;;22.40;60.80;;;;;;5073168;28;20650;-58
2022/03/22 11:52:49;;;;;;;1.58;1.10;;;22.40;60.80;;;;;;5072785;28;20194;-58
2022/03/22 11:55:20;;;;;;;1.33;1.17;;;22.40;60.80;;;;;;5072297;28;20201;-57
2022/03/22 11:57:52;;;;;;;1.30;1.13;;;22.40;60.70;;;;;;5071813;28;20215;-59
2022/03/22 12:00:24;;;;;;;2.05;1.38;;;22.40;60.70;;;;;;5072020;28;20708;-58
2022/03/22 12:02:57;;;;;;;1.58;1.20;;;22.40;60.70;;;;;;5072377;28;20203;-58
2022/03/22 12:05:30;;;;;;;1.63;1.20;;;22.40;60.80;;;;;;5072001;28;20203;-58
2022/03/22 12:08:08;;;;;;;1.60;1.30;;;22.40;60.80;;;;;;5072200;28;20565;-58
2022/03/22 12:10:39;;;;;;;1.83;1.10;;;22.40;60.90;;;;;;5072300;28;20203;-58
2022/03/22 12:13:10;;;;;;;1.08;1.00;;;22.30;60.80;;;;;;5071582;28;20643;-59
2022/03/22 12:15:41;;;;;;;1.35;1.00;;;22.40;60.90;;;;;;5071810;28;20609;-58
2022/03/22 12:18:12;;;;;;;1.67;0.95;;;22.40;61.00;;;;;;5081789;22;20214;-57
2022/03/22 12:20:47;;;;;;;2.00;1.23;;;22.40;61.00;;;;;;5051786;28;20196;-57
2022/03/22 12:23:20;;;;;;;1.52;1.05;;;22.30;60.90;;;;;;5052147;28;20195;-57
2022/03/22 12:25:51;;;;;;;2.00;1.15;;;22.30;61.00;;;;;;5051711;28;20717;-57
2022/03/22 12:28:22;;;;;;;1.70;1.10;;;22.30;60.90;;;;;;5051822;28;20281;-57
2022/03/22 12:30:52;;;;;;;1.73;1.20;;;22.30;60.90;;;;;;5051076;28;20651;-57
2022/03/22 12:33:23;;;;;;;2.10;1.20;;;22.30;60.90;;;;;;5051254;28;20218;-57
2022/03/22 12:35:55;;;;;;;1.30;1.10;;;22.30;60.90;;;;;;5041185;28;20200;-57
2022/03/22 12:38:26;;;;;;;1.58;1.15;;;22.30;60.80;;;;;;5031872;28;20271;-57
2022/03/22 12:40:57;;;;;;;1.10;1.00;;;22.30;60.80;;;;;;5031578;28;20224;-57
2022/03/22 12:43:27;;;;;;;1.15;1.02;;;22.30;60.80;;;;;;5031468;28;20250;-57
2022/03/22 12:45:58;;;;;;;2.20;0.98;;;22.30;60.80;;;;;;5038775;28;20195;-57
2022/03/22 12:48:30;;;;;;;1.52;1.27;;;22.30;60.80;;;;;;5051476;28;20215;-58
2022/03/22 12:51:02;;;;;;;2.50;1.00;;;22.30;60.80;;;;;;5051096;28;20196;-57
2022/03/22 12:53:34;;;;;;;1.65;1.17;;;22.30;60.70;;;;;;5051208;28;20195;-57
2022/03/22 12:56:14;;;;;;;1.10;1.00;;;22.30;60.80;;;;;;5034284;28;20200;-57
2022/03/22 12:58:45;;;;;;;1.67;1.10;;;22.20;60.70;;;;;;5031586;28;20863;-58
2022/03/22 13:01:15;;;;;;;1.83;1.20;;;22.20;60.80;;;;;;5031318;28;20281;-58
2022/03/22 13:03:48;;;;;;;1.20;1.00;;;22.20;60.80;;;;;;5031685;28;20251;-58
2022/03/22 13:06:22;;;;;;;1.10;0.90;;;22.20;60.80;;;;;;5030955;28;20639;-58
2022/03/22 13:11:39;;;;;;;1.85;1.10;;;22.20;60.80;;;;;;5031731;28;20195;-58
2022/03/22 13:17:01;;;;;;;1.50;1.00;;;22.20;60.90;;;;;;5031115;28;20227;-57
2022/03/22 14:19:10;;;;;;;1.30;1.20;;;22.10;60.80;;;;;;5610998;22;20226;-66
2022/03/22 14:21:43;;;;;;;1.38;1.08;;;22.10;60.80;;;;;;5049411;28;20222;-65
2022/03/22 14:24:14;;;;;;;1.73;1.10;;;22.00;60.70;;;;;;5049996;28;20203;-66
2022/03/22 14:26:44;;;;;;;1.80;1.25;;;22.00;60.70;;;;;;5056352;28;20211;-62
2022/03/22 14:29:15;;;;;;;1.40;1.10;;;22.00;60.70;;;;;;5071969;28;20191;-68
2022/03/22 14:31:45;;;;;;;1.10;1.00;;;22.00;60.70;;;;;;5071460;28;20251;-67
2022/03/22 14:35:46;;;;;;;1.65;0.88;;;22.00;60.80;;;;;;5071049;28;20195;-66
2022/03/22 14:37:08;;;;;;;2.53;1.10;;;22.00;60.90;;;;;;5054928;28;20214;-66
2022/03/22 14:39:38;;;;;;;2.10;1.42;;;22.00;60.90;;;;;;5054919;28;20195;-65
2022/03/22 14:42:10;;;;;;;1.20;0.90;;;22.00;60.90;;;;;;5053445;28;20310;-64
2022/03/22 14:44:41;;;;;;;1.15;0.80;;;22.00;61.00;;;;;;5052574;28;20191;-66
2022/03/22 14:47:12;;;;;;;1.30;1.02;;;22.00;61.00;;;;;;5052301;28;20228;-63
2022/03/22 14:49:44;;;;;;;1.13;0.90;;;22.00;61.00;;;;;;5062421;28;20201;-66
2022/03/22 14:55:02;;;;;;;1.90;1.27;;;22.00;61.00;;;;;;5063987;28;20738;-54
2022/03/22 15:00:20;;;;;;;1.52;0.93;;;22.00;60.90;;;;;;5053774;28;20194;-59
2022/03/22 15:02:50;;;;;;;1.33;1.00;;;22.00;60.90;;;;;;5053016;28;20602;-56
2022/03/22 15:05:39;;;;;;;1.80;1.00;;;22.00;60.90;;;;;;5067339;28;20198;-57
2022/03/22 15:08:11;;;;;;;1.83;1.20;;;22.00;60.80;;;;;;5072338;28;20241;-60
2022/03/22 15:10:42;;;;;;;1.20;0.93;;;22.00;60.80;;;;;;5072831;28;20205;-59